Time;durP1;ratioP1;P1;durP2;ratioP2;P2;SDS_P1;SDS_P2;PMS_P1;PMS_P2;Temp;Humidity;BMP_temperature;BMP_pressure;BME280_temperature;BME280_humidity;BME280_pressure;Samples;Min_cycle;Max_cycle;Signal;HPM_P1;HPM_P2
2023/06/22 00:00:53;;;;;;;;;;;27.10;57.60;;;;;;5055072;28;19920;-60
2023/06/22 00:03:22;;;;;;;;;;;27.00;57.60;;;;;;5053715;28;19920;-60
2023/06/22 00:05:49;;;;;;;;;;;27.00;57.50;;;;;;5087210;28;19924;-60
2023/06/22 00:08:16;;;;;;;;;;;27.00;57.60;;;;;;5054158;28;19924;-60
2023/06/22 00:10:44;;;;;;;;;;;27.00;57.60;;;;;;5054543;28;19983;-60
2023/06/22 00:13:11;;;;;;;;;;;27.00;57.60;;;;;;5054160;28;19921;-60
2023/06/22 00:15:39;;;;;;;;;;;27.00;57.60;;;;;;5054488;28;19921;-60
2023/06/22 00:18:06;;;;;;;;;;;27.00;57.60;;;;;;5053653;28;19947;-60
2023/06/22 00:20:37;;;;;;;;;;;27.00;57.60;;;;;;5053925;28;19921;-60
2023/06/22 00:23:08;;;;;;;;;;;27.00;57.60;;;;;;5054900;28;19921;-60
2023/06/22 00:25:35;;;;;;;;;;;27.00;57.60;;;;;;5054305;28;19975;-59
2023/06/22 00:28:03;;;;;;;;;;;27.00;57.50;;;;;;5054638;28;19921;-59
2023/06/22 00:30:30;;;;;;;;;;;27.00;57.60;;;;;;5054379;28;20015;-60
2023/06/22 00:32:58;;;;;;;;;;;27.00;57.50;;;;;;5054211;28;19921;-60
2023/06/22 00:35:28;;;;;;;;;;;27.00;57.60;;;;;;5054360;28;19928;-60
2023/06/22 00:38:04;;;;;;;;;;;27.00;57.60;;;;;;5053673;28;19927;-60
2023/06/22 00:40:32;;;;;;;;;;;27.00;57.50;;;;;;5053517;28;19927;-60
2023/06/22 00:42:59;;;;;;;;;;;27.00;57.60;;;;;;5053805;28;20365;-60
2023/06/22 00:45:26;;;;;;;;;;;27.00;57.50;;;;;;5053835;28;19924;-59
2023/06/22 00:47:54;;;;;;;;;;;27.00;57.50;;;;;;5054323;28;19921;-61
2023/06/22 00:50:22;;;;;;;;;;;27.00;57.50;;;;;;5053608;28;19928;-60
2023/06/22 00:52:51;;;;;;;;;;;27.00;57.50;;;;;;5053726;28;20349;-60
2023/06/22 00:55:18;;;;;;;;;;;27.00;57.50;;;;;;5054537;28;19974;-60
2023/06/22 00:57:46;;;;;;;;;;;27.00;57.60;;;;;;5053570;28;20381;-60
2023/06/22 01:00:15;;;;;;;;;;;27.00;57.50;;;;;;5053728;28;19924;-60
2023/06/22 01:02:45;;;;;;;;;;;27.00;57.50;;;;;;5053247;28;20373;-60
2023/06/22 01:05:13;;;;;;;;;;;27.00;57.50;;;;;;5053289;28;19920;-60
2023/06/22 01:07:54;;;;;;;;;;;27.00;57.50;;;;;;5053609;28;20377;-60
2023/06/22 01:10:27;;;;;;;;;;;27.00;57.50;;;;;;5053946;28;19975;-60
2023/06/22 01:12:58;;;;;;;;;;;27.00;57.50;;;;;;5053774;28;19921;-60
2023/06/22 01:15:33;;;;;;;;;;;26.90;57.50;;;;;;5053649;28;20407;-59
2023/06/22 01:18:00;;;;;;;;;;;27.00;57.50;;;;;;5053563;28;20327;-60
2023/06/22 01:20:28;;;;;;;;;;;27.00;57.50;;;;;;5053018;28;19927;-60
2023/06/22 01:23:05;;;;;;;;;;;26.90;57.50;;;;;;5052451;28;19924;-60
2023/06/22 01:25:45;;;;;;;;;;;26.90;57.50;;;;;;5053570;28;19921;-60
2023/06/22 01:28:32;;;;;;;;;;;26.90;57.50;;;;;;5053607;28;19921;-60
2023/06/22 01:31:05;;;;;;;;;;;26.90;57.50;;;;;;5053100;28;20366;-60
2023/06/22 01:33:34;;;;;;;;;;;26.90;57.50;;;;;;5053687;28;19921;-60
2023/06/22 01:36:02;;;;;;;;;;;26.90;57.50;;;;;;5053446;28;19920;-61
2023/06/22 01:38:29;;;;;;;;;;;26.90;57.50;;;;;;5052489;28;19921;-61
2023/06/22 01:40:57;;;;;;;;;;;26.90;57.50;;;;;;5053163;28;19924;-60
2023/06/22 01:43:26;;;;;;;;;;;26.90;57.50;;;;;;5052578;28;19928;-59
2023/06/22 01:45:57;;;;;;;;;;;26.90;57.50;;;;;;5053563;28;19921;-60
2023/06/22 01:48:25;;;;;;;;;;;26.90;57.50;;;;;;5053253;28;19921;-60
2023/06/22 01:50:53;;;;;;;;;;;26.90;57.50;;;;;;5056712;28;19974;-60
2023/06/22 01:53:21;;;;;;;;;;;26.90;57.50;;;;;;5056151;28;20019;-60
2023/06/22 01:55:48;;;;;;;;;;;26.90;57.50;;;;;;5057394;28;19974;-60
2023/06/22 01:58:15;;;;;;;;;;;26.90;57.50;;;;;;5057214;28;19964;-60
2023/06/22 02:00:50;;;;;;;;;;;26.90;57.50;;;;;;5056922;28;19924;-60
2023/06/22 02:03:19;;;;;;;;;;;26.80;57.40;;;;;;5056343;28;19990;-60
2023/06/22 02:05:52;;;;;;;;;;;26.80;57.40;;;;;;5057461;28;19927;-60
2023/06/22 02:08:28;;;;;;;;;;;26.90;57.50;;;;;;5056694;28;19960;-60
2023/06/22 02:10:56;;;;;;;;;;;26.80;57.40;;;;;;5057127;28;19964;-60
2023/06/22 02:13:24;;;;;;;;;;;26.80;57.40;;;;;;5056297;28;19920;-60
2023/06/22 02:15:51;;;;;;;;;;;26.80;57.40;;;;;;5057262;28;19921;-60
2023/06/22 02:18:20;;;;;;;;;;;26.80;57.50;;;;;;5056698;28;20281;-60
2023/06/22 02:20:47;;;;;;;;;;;26.80;57.40;;;;;;5056525;28;19929;-60
2023/06/22 02:23:14;;;;;;;;;;;26.80;57.40;;;;;;5055883;28;19925;-60
2023/06/22 02:25:44;;;;;;;;;;;26.80;57.50;;;;;;5056860;28;19921;-60
2023/06/22 02:28:11;;;;;;;;;;;26.80;57.40;;;;;;5056382;28;20411;-60
2023/06/22 02:30:38;;;;;;;;;;;26.80;57.40;;;;;;5056395;28;19924;-60
2023/06/22 02:33:05;;;;;;;;;;;26.80;57.40;;;;;;5055610;28;19966;-60
2023/06/22 02:35:35;;;;;;;;;;;26.80;57.40;;;;;;5056585;28;19921;-60
2023/06/22 02:38:03;;;;;;;;;;;26.80;57.40;;;;;;5056197;28;19964;-60
2023/06/22 02:40:30;;;;;;;;;;;26.80;57.40;;;;;;5055942;28;19920;-60
2023/06/22 02:43:02;;;;;;;;;;;26.80;57.50;;;;;;5055902;28;19978;-60
2023/06/22 02:45:30;;;;;;;;;;;26.80;57.50;;;;;;5056789;28;19975;-60
2023/06/22 02:47:57;;;;;;;;;;;26.80;57.40;;;;;;5056695;28;19931;-60
2023/06/22 02:50:24;;;;;;;;;;;26.80;57.40;;;;;;5055937;28;19920;-60
2023/06/22 02:52:51;;;;;;;;;;;26.80;57.40;;;;;;5055519;28;20381;-60
2023/06/22 02:55:18;;;;;;;;;;;26.80;57.40;;;;;;5055338;28;19921;-60
2023/06/22 02:57:46;;;;;;;;;;;26.80;57.40;;;;;;5055921;28;19979;-60
2023/06/22 03:00:17;;;;;;;;;;;26.80;57.40;;;;;;5056317;28;20034;-59
2023/06/22 03:02:45;;;;;;;;;;;26.80;57.40;;;;;;5055521;28;20312;-60
2023/06/22 03:05:13;;;;;;;;;;;26.80;57.40;;;;;;5056122;28;19927;-59
2023/06/22 03:07:41;;;;;;;;;;;26.80;57.40;;;;;;5055712;28;19921;-60
2023/06/22 03:10:09;;;;;;;;;;;26.90;57.40;;;;;;5055061;28;19932;-60
2023/06/22 03:12:38;;;;;;;;;;;26.80;57.90;;;;;;5055561;28;20007;-60
2023/06/22 03:15:06;;;;;;;;;;;26.90;57.40;;;;;;5055871;28;19966;-60
2023/06/22 03:17:33;;;;;;;;;;;26.80;57.40;;;;;;5055659;28;19928;-60
2023/06/22 03:20:01;;;;;;;;;;;26.80;57.40;;;;;;5056075;28;19967;-60
2023/06/22 03:22:28;;;;;;;;;;;26.80;57.40;;;;;;5055257;28;19921;-60
2023/06/22 03:24:55;;;;;;;;;;;26.80;57.30;;;;;;5055709;28;19964;-60
2023/06/22 03:27:21;;;;;;;;;;;26.80;57.30;;;;;;5055600;28;19921;-60
2023/06/22 03:29:48;;;;;;;;;;;26.90;57.30;;;;;;5055875;28;19929;-60
2023/06/22 03:32:15;;;;;;;;;;;26.80;57.20;;;;;;5055287;28;20520;-60
2023/06/22 03:34:46;;;;;;;;;;;26.80;57.20;;;;;;5055469;28;19921;-60
2023/06/22 03:37:14;;;;;;;;;;;26.90;57.20;;;;;;5087672;28;19920;-60
2023/06/22 03:39:41;;;;;;;;;;;26.90;57.10;;;;;;5055587;28;19928;-60
2023/06/22 03:42:08;;;;;;;;;;;26.90;57.10;;;;;;5054818;28;20378;-60
2023/06/22 03:44:36;;;;;;;;;;;26.90;57.00;;;;;;5055410;28;20338;-60
2023/06/22 03:47:07;;;;;;;;;;;26.90;57.00;;;;;;5054976;28;19921;-60
2023/06/22 03:49:34;;;;;;;;;;;26.90;56.90;;;;;;5055097;28;19920;-60
2023/06/22 03:52:02;;;;;;;;;;;26.90;56.80;;;;;;5054382;28;19964;-60
2023/06/22 03:54:29;;;;;;;;;;;27.00;56.90;;;;;;5054721;28;19921;-60
2023/06/22 03:56:57;;;;;;;;;;;27.00;56.70;;;;;;5052233;28;19956;-60
2023/06/22 03:59:24;;;;;;;;;;;27.00;56.70;;;;;;5053951;28;19968;-60
2023/06/22 04:01:51;;;;;;;;;;;27.00;56.60;;;;;;5052619;28;19929;-60
2023/06/22 04:04:18;;;;;;;;;;;27.10;56.60;;;;;;5056016;28;19920;-59
2023/06/22 04:06:45;;;;;;;;;;;27.10;56.50;;;;;;5059942;28;19920;-59
2023/06/22 04:09:12;;;;;;;;;;;27.10;56.40;;;;;;5056152;28;19932;-60
2023/06/22 04:11:39;;;;;;;;;;;27.10;56.40;;;;;;5056277;28;19920;-60
2023/06/22 04:14:06;;;;;;;;;;;27.20;56.40;;;;;;5055721;28;20323;-60
2023/06/22 04:16:33;;;;;;;;;;;27.20;56.30;;;;;;5062814;28;19921;-60
2023/06/22 04:19:00;;;;;;;;;;;27.20;56.20;;;;;;5056098;28;19971;-60
2023/06/22 04:21:27;;;;;;;;;;;27.20;56.10;;;;;;5055703;28;19924;-60
2023/06/22 04:23:54;;;;;;;;;;;27.20;56.10;;;;;;5054545;28;20273;-60
2023/06/22 04:26:21;;;;;;;;;;;27.20;56.00;;;;;;5058223;28;20364;-60
2023/06/22 04:28:51;;;;;;;;;;;27.20;55.90;;;;;;5053397;28;20312;-59
2023/06/22 04:31:22;;;;;;;;;;;27.30;55.90;;;;;;5060484;28;19960;-60
2023/06/22 04:33:51;;;;;;;;;;;27.30;55.90;;;;;;5050358;28;19932;-59
2023/06/22 04:36:18;;;;;;;;;;;27.20;55.90;;;;;;5055543;28;19936;-60
2023/06/22 04:38:45;;;;;;;;;;;27.10;56.20;;;;;;5052460;28;19964;-60
2023/06/22 04:41:14;;;;;;;;;;;27.00;56.70;;;;;;5053494;28;19927;-60
2023/06/22 04:43:41;;;;;;;;;;;26.80;57.40;;;;;;5049585;28;20324;-60
2023/06/22 04:46:08;;;;;;;;;;;26.50;57.50;;;;;;5054478;28;19978;-59
2023/06/22 04:48:35;;;;;;;;;;;26.30;57.10;;;;;;5056332;28;19970;-60
2023/06/22 04:51:04;;;;;;;;;;;26.00;56.70;;;;;;5052941;28;19974;-60
2023/06/22 04:53:31;;;;;;;;;;;25.70;56.30;;;;;;5051972;28;19920;-59
2023/06/22 04:55:58;;;;;;;;;;;25.50;55.80;;;;;;5048641;28;20390;-60
2023/06/22 04:58:28;;;;;;;;;;;25.20;55.40;;;;;;5049123;28;20014;-59
2023/06/22 05:00:56;;;;;;;;;;;24.90;55.20;;;;;;5054356;28;19921;-59
2023/06/22 05:03:26;;;;;;;;;;;24.70;55.20;;;;;;5052079;28;19921;-59
2023/06/22 05:05:54;;;;;;;;;;;24.40;56.80;;;;;;5050577;28;19921;-59
2023/06/22 05:08:21;;;;;;;;;;;24.20;55.40;;;;;;5048361;28;19921;-59
2023/06/22 05:10:48;;;;;;;;;;;23.90;59.60;;;;;;5050555;28;19943;-59
2023/06/22 05:13:31;;;;;;;;;;;23.60;58.70;;;;;;5054497;28;19925;-59
2023/06/22 05:16:00;;;;;;;;;;;23.30;61.20;;;;;;5058594;28;20452;-59
2023/06/22 05:18:29;;;;;;;;;;;23.00;59.00;;;;;;5072483;28;20310;-58
2023/06/22 05:20:57;;;;;;;;;;;22.80;62.20;;;;;;5041597;28;19929;-63
2023/06/22 05:23:24;;;;;;;;;;;22.60;61.60;;;;;;5049713;28;19927;-63
2023/06/22 05:25:57;;;;;;;;;;;22.50;60.70;;;;;;5069232;28;20008;-63
2023/06/22 05:28:25;;;;;;;;;;;22.30;60.70;;;;;;5043989;28;20011;-62
2023/06/22 05:30:52;;;;;;;;;;;22.20;59.80;;;;;;5038852;28;19940;-63
2023/06/22 05:33:19;;;;;;;;;;;22.00;59.50;;;;;;5037712;28;19932;-63
2023/06/22 05:35:47;;;;;;;;;;;21.90;59.30;;;;;;5045927;28;20079;-62
2023/06/22 05:38:14;;;;;;;;;;;21.70;62.00;;;;;;5042652;28;19978;-63
2023/06/22 05:40:41;;;;;;;;;;;21.60;59.10;;;;;;5040457;28;20285;-63
2023/06/22 05:43:08;;;;;;;;;;;21.40;59.60;;;;;;5041190;28;19970;-61
2023/06/22 05:45:35;;;;;;;;;;;21.10;61.40;;;;;;5068713;28;19928;-63
2023/06/22 05:48:02;;;;;;;;;;;21.00;62.20;;;;;;5042269;28;19920;-62
2023/06/22 05:50:29;;;;;;;;;;;20.90;64.00;;;;;;5044665;28;19928;-63
2023/06/22 05:52:56;;;;;;;;;;;20.90;65.50;;;;;;5039374;28;19943;-62
2023/06/22 05:55:23;;;;;;;;;;;20.80;65.30;;;;;;5043211;28;19982;-61
2023/06/22 05:57:50;;;;;;;;;;;20.70;64.00;;;;;;5042622;28;19964;-63
2023/06/22 06:00:19;;;;;;;;;;;20.70;66.70;;;;;;5038116;28;20043;-63
2023/06/22 06:02:46;;;;;;;;;;;20.70;65.20;;;;;;5036986;28;19963;-62
2023/06/22 06:05:16;;;;;;;;;;;20.70;64.60;;;;;;5044635;28;20011;-62
2023/06/22 06:07:43;;;;;;;;;;;20.80;64.10;;;;;;5040199;28;19929;-64
2023/06/22 06:10:10;;;;;;;;;;;20.90;65.30;;;;;;5044098;28;19955;-63
2023/06/22 06:12:37;;;;;;;;;;;21.10;66.40;;;;;;5042589;28;19964;-62
2023/06/22 06:15:04;;;;;;;;;;;21.10;65.80;;;;;;5071468;28;20339;-62
2023/06/22 06:17:32;;;;;;;;;;;21.20;63.90;;;;;;5041321;28;20397;-62
2023/06/22 06:20:00;;;;;;;;;;;21.20;63.90;;;;;;5043697;28;19925;-62
2023/06/22 06:22:27;;;;;;;;;;;21.20;64.20;;;;;;5035768;28;20053;-64
2023/06/22 06:24:54;;;;;;;;;;;21.20;63.30;;;;;;5041823;28;20395;-64
2023/06/22 06:27:21;;;;;;;;;;;21.20;63.20;;;;;;5044790;28;20424;-64
2023/06/22 06:29:48;;;;;;;;;;;21.20;62.90;;;;;;5044925;28;20345;-63
2023/06/22 06:32:15;;;;;;;;;;;21.10;63.00;;;;;;5040742;28;20281;-62
2023/06/22 06:34:43;;;;;;;;;;;21.10;63.20;;;;;;5046061;28;19951;-62
2023/06/22 06:37:10;;;;;;;;;;;21.10;63.70;;;;;;5047411;28;19943;-61
2023/06/22 06:39:37;;;;;;;;;;;21.10;63.90;;;;;;5051048;28;19924;-64
2023/06/22 06:42:04;;;;;;;;;;;21.10;64.00;;;;;;5050972;28;19928;-63
2023/06/22 06:44:31;;;;;;;;;;;21.10;64.50;;;;;;5048496;28;19924;-62
2023/06/22 06:46:58;;;;;;;;;;;21.10;64.30;;;;;;5076809;28;20015;-63
2023/06/22 06:49:26;;;;;;;;;;;21.10;64.40;;;;;;5047215;28;19947;-62
2023/06/22 06:51:55;;;;;;;;;;;21.10;64.70;;;;;;5046823;28;19921;-64
2023/06/22 06:54:22;;;;;;;;;;;21.20;64.80;;;;;;5050525;28;19990;-64
2023/06/22 06:56:49;;;;;;;;;;;21.20;64.10;;;;;;5048435;28;21368;-63
2023/06/22 06:59:16;;;;;;;;;;;21.20;64.80;;;;;;5050187;28;19929;-62
2023/06/22 07:01:44;;;;;;;;;;;21.30;64.30;;;;;;5046831;28;19983;-63
2023/06/22 07:04:11;;;;;;;;;;;21.30;64.40;;;;;;5049173;28;19927;-62
2023/06/22 07:06:38;;;;;;;;;;;21.30;64.10;;;;;;5048196;28;19925;-65
2023/06/22 07:09:05;;;;;;;;;;;21.30;64.30;;;;;;5046637;28;19955;-69
2023/06/22 07:11:33;;;;;;;;;;;21.30;63.90;;;;;;5049181;28;19937;-63
2023/06/22 07:14:01;;;;;;;;;;;21.30;63.30;;;;;;5043826;28;19925;-63
2023/06/22 07:16:29;;;;;;;;;;;21.30;63.20;;;;;;5040274;28;20838;-62
2023/06/22 07:18:56;;;;;;;;;;;21.30;64.00;;;;;;5042143;28;20220;-62
2023/06/22 07:21:23;;;;;;;;;;;21.40;63.70;;;;;;5047399;28;20289;-63
2023/06/22 07:23:50;;;;;;;;;;;21.40;63.80;;;;;;5047124;28;19967;-63
2023/06/22 07:26:18;;;;;;;;;;;21.50;63.60;;;;;;5046294;28;19963;-63
2023/06/22 07:28:45;;;;;;;;;;;21.50;63.40;;;;;;5048217;28;19924;-62
2023/06/22 07:31:12;;;;;;;;;;;21.50;63.20;;;;;;5047900;28;20025;-61
2023/06/22 07:33:41;;;;;;;;;;;21.50;63.00;;;;;;5048968;28;19928;-62
2023/06/22 07:36:08;;;;;;;;;;;21.50;63.30;;;;;;5048551;28;20376;-62
2023/06/22 07:38:35;;;;;;;;;;;21.50;63.20;;;;;;5049270;28;19944;-62
2023/06/22 07:41:05;;;;;;;;;;;21.50;62.90;;;;;;5075557;28;19936;-62
2023/06/22 07:43:34;;;;;;;;;;;21.50;62.80;;;;;;5050210;28;20107;-62
2023/06/22 07:46:01;;;;;;;;;;;21.50;62.60;;;;;;5047849;28;19929;-64
2023/06/22 07:48:28;;;;;;;;;;;21.40;63.40;;;;;;5049275;28;20206;-63
2023/06/22 07:50:56;;;;;;;;;;;21.40;63.10;;;;;;5047961;28;20015;-65
2023/06/22 07:53:23;;;;;;;;;;;21.50;64.20;;;;;;5042860;28;19928;-67
2023/06/22 07:55:50;;;;;;;;;;;21.50;64.40;;;;;;5042712;28;19920;-66
2023/06/22 07:58:18;;;;;;;;;;;21.50;64.20;;;;;;5047695;28;19920;-64
2023/06/22 08:00:46;;;;;;;;;;;21.60;64.00;;;;;;5049094;28;19921;-64
2023/06/22 08:03:13;;;;;;;;;;;21.60;64.30;;;;;;5048687;28;19978;-65
2023/06/22 08:05:40;;;;;;;;;;;21.70;63.70;;;;;;5045574;28;19929;-67
2023/06/22 08:08:07;;;;;;;;;;;21.80;63.80;;;;;;5047957;28;19968;-66
2023/06/22 08:10:36;;;;;;;;;;;21.80;63.60;;;;;;5045479;28;19928;-63
2023/06/22 08:13:03;;;;;;;;;;;21.90;63.20;;;;;;5040896;28;20914;-64
2023/06/22 08:15:30;;;;;;;;;;;21.90;63.20;;;;;;5041580;28;19971;-65
2023/06/22 08:17:58;;;;;;;;;;;21.90;62.90;;;;;;5046982;28;20284;-65
2023/06/22 08:20:26;;;;;;;;;;;21.90;62.50;;;;;;5046345;28;19931;-67
2023/06/22 08:22:54;;;;;;;;;;;21.90;63.20;;;;;;5044412;28;19929;-64
2023/06/22 08:25:21;;;;;;;;;;;21.90;63.00;;;;;;5042999;28;20478;-64
2023/06/22 08:27:48;;;;;;;;;;;21.90;63.10;;;;;;5050034;28;20219;-64
2023/06/22 08:30:17;;;;;;;;;;;21.90;62.70;;;;;;5042416;28;19952;-65
2023/06/22 08:32:44;;;;;;;;;;;22.00;62.90;;;;;;5041585;28;20366;-64
2023/06/22 08:35:11;;;;;;;;;;;22.00;62.50;;;;;;5043355;28;19932;-66
2023/06/22 08:37:40;;;;;;;;;;;22.00;62.80;;;;;;5044606;28;20389;-63
2023/06/22 08:40:09;;;;;;;;;;;22.00;62.70;;;;;;4977447;28;20279;-64
2023/06/22 08:42:37;;;;;;;;;;;22.00;62.30;;;;;;4977181;28;19972;-63
2023/06/22 08:45:05;;;;;;;;;;;22.00;62.50;;;;;;4978015;28;19933;-64
2023/06/22 08:47:32;;;;;;;;;;;22.00;62.30;;;;;;4980413;28;19934;-65
2023/06/22 08:50:01;;;;;;;;;;;22.10;62.40;;;;;;4980774;28;19984;-64
2023/06/22 08:52:29;;;;;;;;;;;22.10;62.30;;;;;;4974436;28;19930;-61
2023/06/22 08:54:56;;;;;;;;;;;22.10;62.40;;;;;;4978219;28;19957;-64
2023/06/22 08:57:23;;;;;;;;;;;22.10;62.30;;;;;;4983600;28;19929;-66
2023/06/22 08:59:52;;;;;;;;;;;22.20;62.10;;;;;;5047578;28;19924;-67
2023/06/22 09:02:19;;;;;;;;;;;22.20;62.30;;;;;;5047024;28;19928;-64
2023/06/22 09:04:47;;;;;;;;;;;22.20;62.20;;;;;;5043678;28;21719;-65
2023/06/22 09:07:14;;;;;;;;;;;22.20;62.30;;;;;;5041671;28;20747;-64
2023/06/22 09:09:41;;;;;;;;;;;22.20;62.10;;;;;;5046456;28;19925;-64
2023/06/22 09:12:08;;;;;;;;;;;22.20;62.30;;;;;;5047969;28;20065;-65
2023/06/22 09:14:36;;;;;;;;;;;22.30;62.50;;;;;;5047362;28;19928;-66
2023/06/22 09:17:03;;;;;;;;;;;22.30;62.00;;;;;;5042815;28;19929;-65
2023/06/22 09:19:30;;;;;;;;;;;22.30;62.50;;;;;;5045083;28;19924;-65
2023/06/22 09:21:57;;;;;;;;;;;22.30;62.40;;;;;;5042375;28;21750;-65
2023/06/22 09:24:24;;;;;;;;;;;22.40;62.10;;;;;;5045709;28;19929;-65
2023/06/22 09:26:51;;;;;;;;;;;22.40;62.00;;;;;;5047096;28;19921;-64
2023/06/22 09:29:18;;;;;;;;;;;22.40;62.00;;;;;;5040318;28;20296;-64
2023/06/22 09:31:45;;;;;;;;;;;22.50;61.80;;;;;;5040726;28;19928;-65
2023/06/22 09:34:12;;;;;;;;;;;22.50;61.90;;;;;;5038899;28;19996;-64
2023/06/22 09:36:41;;;;;;;;;;;22.50;61.80;;;;;;5046365;28;19928;-65
2023/06/22 09:39:09;;;;;;;;;;;22.50;61.60;;;;;;5046246;28;19953;-64
2023/06/22 09:41:36;;;;;;;;;;;22.50;61.80;;;;;;5046510;28;20438;-64
2023/06/22 09:44:03;;;;;;;;;;;22.50;61.70;;;;;;5044758;28;20369;-63
2023/06/22 09:46:30;;;;;;;;;;;22.60;61.80;;;;;;5046869;28;19920;-64
2023/06/22 09:48:57;;;;;;;;;;;22.60;61.30;;;;;;5045143;28;19929;-65
2023/06/22 09:51:24;;;;;;;;;;;22.60;61.60;;;;;;5045321;28;19974;-65
2023/06/22 09:53:53;;;;;;;;;;;22.60;61.30;;;;;;5045822;28;20269;-65
2023/06/22 09:56:20;;;;;;;;;;;22.60;61.50;;;;;;5049401;28;20023;-65
2023/06/22 09:58:47;;;;;;;;;;;22.60;61.20;;;;;;5049419;28;19938;-63
2023/06/22 10:01:14;;;;;;;;;;;22.60;61.20;;;;;;5045576;28;19978;-64
2023/06/22 10:03:41;;;;;;;;;;;22.50;61.30;;;;;;5043424;28;19932;-66
2023/06/22 10:06:08;;;;;;;;;;;22.60;60.80;;;;;;5048829;28;20666;-64
2023/06/22 10:08:36;;;;;;;;;;;22.60;61.20;;;;;;5043014;28;19921;-64
2023/06/22 10:11:03;;;;;;;;;;;22.60;61.60;;;;;;5046095;28;19978;-64
2023/06/22 10:13:31;;;;;;;;;;;22.70;60.70;;;;;;5046499;28;20241;-64
2023/06/22 10:15:58;;;;;;;;;;;22.70;60.80;;;;;;5048812;28;19928;-64
2023/06/22 10:18:25;;;;;;;;;;;22.70;60.70;;;;;;5052740;28;20300;-66
2023/06/22 10:20:52;;;;;;;;;;;22.70;60.30;;;;;;5050873;28;19925;-64
2023/06/22 10:23:19;;;;;;;;;;;22.70;61.00;;;;;;5052733;28;19921;-64
2023/06/22 10:25:47;;;;;;;;;;;22.70;60.60;;;;;;5050775;28;20438;-64
2023/06/22 10:28:14;;;;;;;;;;;22.70;60.70;;;;;;5061324;28;19970;-65
2023/06/22 10:30:42;;;;;;;;;;;22.70;60.50;;;;;;5049304;28;19925;-63
2023/06/22 10:33:09;;;;;;;;;;;22.70;60.30;;;;;;5051201;28;20266;-61
2023/06/22 10:35:39;;;;;;;;;;;22.70;60.80;;;;;;5047655;28;20385;-64
2023/06/22 10:38:08;;;;;;;;;;;22.60;59.80;;;;;;5051369;28;19967;-64
2023/06/22 10:40:35;;;;;;;;;;;22.70;60.20;;;;;;5051189;28;19966;-64
2023/06/22 10:43:02;;;;;;;;;;;22.60;60.40;;;;;;5047321;28;19920;-62
2023/06/22 10:45:29;;;;;;;;;;;22.50;60.50;;;;;;5049221;28;19978;-63
2023/06/22 10:47:57;;;;;;;;;;;22.50;60.00;;;;;;5048550;28;19921;-64
2023/06/22 10:50:25;;;;;;;;;;;22.50;60.80;;;;;;5044816;28;20389;-64
2023/06/22 10:52:52;;;;;;;;;;;22.50;60.50;;;;;;5051815;28;19974;-64
2023/06/22 10:55:19;;;;;;;;;;;22.50;60.50;;;;;;5042040;28;19935;-63
2023/06/22 10:57:46;;;;;;;;;;;22.50;60.50;;;;;;5044009;28;19970;-64
2023/06/22 11:00:15;;;;;;;;;;;22.50;60.80;;;;;;5047701;28;19967;-63
2023/06/22 11:02:43;;;;;;;;;;;22.50;60.30;;;;;;5046881;28;19956;-64
2023/06/22 11:05:11;;;;;;;;;;;22.50;60.20;;;;;;5048370;28;20019;-63
2023/06/22 11:07:41;;;;;;;;;;;22.50;60.90;;;;;;5049997;28;20389;-64
2023/06/22 11:10:12;;;;;;;;;;;22.50;59.80;;;;;;5045798;28;19947;-61
2023/06/22 11:12:39;;;;;;;;;;;22.50;60.30;;;;;;5048576;28;19927;-62
2023/06/22 11:15:06;;;;;;;;;;;22.50;60.00;;;;;;5047377;28;20361;-61
2023/06/22 11:17:33;;;;;;;;;;;22.40;59.70;;;;;;5059073;28;19932;-65
2023/06/22 11:20:10;;;;;;;;;;;22.40;59.70;;;;;;5046669;28;19927;-64
2023/06/22 11:22:41;;;;;;;;;;;22.40;60.10;;;;;;5047161;28;20408;-66
2023/06/22 11:25:08;;;;;;;;;;;22.40;60.10;;;;;;5046586;28;19921;-66
2023/06/22 11:27:35;;;;;;;;;;;22.40;60.70;;;;;;5048413;28;19937;-66
2023/06/22 11:30:03;;;;;;;;;;;22.40;60.80;;;;;;5051100;28;19952;-66
2023/06/22 11:32:30;;;;;;;;;;;22.40;60.90;;;;;;5045403;28;20335;-65
2023/06/22 11:34:57;;;;;;;;;;;22.40;60.60;;;;;;5053560;28;19925;-65
2023/06/22 11:37:24;;;;;;;;;;;22.50;60.60;;;;;;5049974;28;19932;-64
2023/06/22 11:39:54;;;;;;;;;;;22.50;60.90;;;;;;5042805;28;19924;-65
2023/06/22 11:42:34;;;;;;;;;;;22.50;62.60;;;;;;5049267;28;19920;-65
2023/06/22 11:45:04;;;;;;;;;;;22.70;64.50;;;;;;5048339;28;19924;-65
2023/06/22 11:47:31;;;;;;;;;;;22.90;64.10;;;;;;5047325;28;20347;-65
2023/06/22 11:49:58;;;;;;;;;;;23.10;63.80;;;;;;5047123;28;20498;-65
2023/06/22 11:52:27;;;;;;;;;;;23.30;63.90;;;;;;5044094;28;20400;-67
2023/06/22 11:54:54;;;;;;;;;;;23.50;63.40;;;;;;5049534;28;19927;-63
2023/06/22 11:57:22;;;;;;;;;;;23.60;63.40;;;;;;5048485;28;19921;-66
2023/06/22 11:59:49;;;;;;;;;;;23.70;62.90;;;;;;5050433;28;19963;-65
2023/06/22 12:02:16;;;;;;;;;;;23.80;62.50;;;;;;5052241;28;20398;-66
2023/06/22 12:04:43;;;;;;;;;;;23.90;62.20;;;;;;5046655;28;19939;-69
2023/06/22 12:07:10;;;;;;;;;;;24.00;62.10;;;;;;5048852;28;20384;-64
2023/06/22 12:09:38;;;;;;;;;;;24.00;62.30;;;;;;5077722;28;19921;-63
2023/06/22 12:12:05;;;;;;;;;;;24.10;62.50;;;;;;5047433;28;20440;-66
2023/06/22 12:14:32;;;;;;;;;;;24.10;62.30;;;;;;5047467;28;19928;-67
2023/06/22 12:16:59;;;;;;;;;;;24.10;62.20;;;;;;5073250;28;19928;-66
2023/06/22 12:19:26;;;;;;;;;;;24.20;62.10;;;;;;5043207;28;19986;-66
2023/06/22 12:21:54;;;;;;;;;;;24.30;62.30;;;;;;5053077;28;20292;-65
2023/06/22 12:24:21;;;;;;;;;;;24.30;62.30;;;;;;5048480;28;19983;-64
2023/06/22 12:26:49;;;;;;;;;;;24.30;62.10;;;;;;5047854;28;19928;-65
2023/06/22 12:29:16;;;;;;;;;;;24.30;61.90;;;;;;5047778;28;19928;-66
2023/06/22 12:31:43;;;;;;;;;;;24.30;61.70;;;;;;5050966;28;19973;-62
2023/06/22 12:34:11;;;;;;;;;;;24.30;61.90;;;;;;5046076;28;20029;-63
2023/06/22 12:36:38;;;;;;;;;;;24.30;61.70;;;;;;5046525;28;19920;-64
2023/06/22 12:39:05;;;;;;;;;;;24.30;61.40;;;;;;5043322;28;19958;-66
2023/06/22 12:41:32;;;;;;;;;;;24.30;61.20;;;;;;5042345;28;19940;-66
2023/06/22 12:44:01;;;;;;;;;;;24.30;60.80;;;;;;5041508;28;20126;-63
2023/06/22 12:46:30;;;;;;;;;;;24.30;60.90;;;;;;5040736;28;20401;-65
2023/06/22 12:48:57;;;;;;;;;;;24.40;60.50;;;;;;5042312;28;19929;-66
2023/06/22 12:51:24;;;;;;;;;;;24.30;60.40;;;;;;5046937;28;20423;-62
2023/06/22 12:53:51;;;;;;;;;;;24.30;60.40;;;;;;5048867;28;20454;-64
2023/06/22 12:56:18;;;;;;;;;;;24.30;60.30;;;;;;5045619;28;19975;-64
2023/06/22 12:58:45;;;;;;;;;;;24.30;60.40;;;;;;5049497;28;19986;-61
2023/06/22 13:01:12;;;;;;;;;;;24.30;60.30;;;;;;5045756;28;19982;-63
2023/06/22 13:03:40;;;;;;;;;;;24.40;60.40;;;;;;5049172;28;19932;-61
2023/06/22 13:06:07;;;;;;;;;;;24.40;60.20;;;;;;5044269;28;20324;-61
2023/06/22 13:08:34;;;;;;;;;;;24.40;60.20;;;;;;5046657;28;19921;-62
2023/06/22 13:11:21;;;;;;;;;;;24.40;60.20;;;;;;5047180;28;19972;-62
2023/06/22 13:13:51;;;;;;;;;;;24.40;60.10;;;;;;5042599;28;19931;-61
2023/06/22 13:16:18;;;;;;;;;;;24.40;60.10;;;;;;5048655;28;19925;-61
2023/06/22 13:18:44;;;;;;;;;;;24.40;60.10;;;;;;5059094;28;19920;-59
2023/06/22 13:21:14;;;;;;;;;;;24.40;59.90;;;;;;5046015;28;19968;-61
2023/06/22 13:23:41;;;;;;;;;;;24.40;60.00;;;;;;5045518;28;19925;-63
2023/06/22 13:26:08;;;;;;;;;;;24.40;60.00;;;;;;5039458;28;19924;-61
2023/06/22 13:28:35;;;;;;;;;;;24.40;60.00;;;;;;5037551;28;19935;-60
2023/06/22 13:31:02;;;;;;;;;;;24.40;60.10;;;;;;5039645;28;20345;-60
2023/06/22 13:33:29;;;;;;;;;;;24.40;60.00;;;;;;5044334;28;19920;-60
2023/06/22 13:35:56;;;;;;;;;;;24.40;59.90;;;;;;5044423;28;19974;-62
2023/06/22 13:38:26;;;;;;;;;;;24.40;59.80;;;;;;5041847;28;19925;-62
2023/06/22 13:40:55;;;;;;;;;;;24.40;59.80;;;;;;5076864;28;19975;-63
2023/06/22 13:43:23;;;;;;;;;;;24.40;59.70;;;;;;5054118;28;19958;-60
2023/06/22 13:45:50;;;;;;;;;;;24.30;59.60;;;;;;5048825;28;19974;-60
2023/06/22 13:48:17;;;;;;;;;;;24.40;60.00;;;;;;5051696;28;19920;-62
2023/06/22 13:50:44;;;;;;;;;;;24.40;60.10;;;;;;5048127;28;19967;-62
2023/06/22 13:53:11;;;;;;;;;;;24.40;59.90;;;;;;5046614;28;20020;-63
2023/06/22 13:55:38;;;;;;;;;;;24.30;59.80;;;;;;5048847;28;19921;-63
2023/06/22 13:58:05;;;;;;;;;;;24.30;59.60;;;;;;5044663;28;19921;-61
2023/06/22 14:00:32;;;;;;;;;;;24.30;59.50;;;;;;5046642;28;20336;-61
2023/06/22 14:03:00;;;;;;;;;;;24.30;59.50;;;;;;5045216;28;19920;-61
2023/06/22 14:05:27;;;;;;;;;;;24.40;66.10;;;;;;5048674;28;19961;-61
2023/06/22 14:07:57;;;;;;;;;;;24.50;68.60;;;;;;5047530;28;19928;-61
2023/06/22 14:10:25;;;;;;;;;;;24.60;70.00;;;;;;5044066;28;19929;-61
2023/06/22 14:12:53;;;;;;;;;;;24.70;70.50;;;;;;5046102;28;19932;-60
2023/06/22 14:15:22;;;;;;;;;;;24.90;70.80;;;;;;5044672;28;19925;-60
2023/06/22 14:17:49;;;;;;;;;;;25.10;71.50;;;;;;5046333;28;19924;-60
2023/06/22 14:20:17;;;;;;;;;;;25.30;71.60;;;;;;5045480;28;20396;-61